sensor_id;sensor_type;location;lat;lon;timestamp;pressure;altitude;pressure_sealevel;temperature;humidity
20350;BME280;10332;50.208;18.988;2022-07-15T00:00:13;97775.38;;;19.60;100.00
20350;BME280;10332;50.208;18.988;2022-07-15T00:03:01;97781.50;;;19.60;100.00
20350;BME280;10332;50.208;18.988;2022-07-15T00:05:30;97783.16;;;19.61;100.00
20350;BME280;10332;50.208;18.988;2022-07-15T00:07:58;97794.56;;;19.70;100.00
20350;BME280;10332;50.208;18.988;2022-07-15T00:10:28;97793.38;;;19.64;100.00
20350;BME280;10332;50.208;18.988;2022-07-15T00:12:59;97794.22;;;19.65;100.00
20350;BME280;10332;50.208;18.988;2022-07-15T00:15:30;97781.16;;;19.63;100.00
20350;BME280;10332;50.208;18.988;2022-07-15T00:17:59;97789.09;;;19.63;100.00
20350;BME280;10332;50.208;18.988;2022-07-15T00:20:32;97795.69;;;19.67;100.00
20350;BME280;10332;50.208;18.988;2022-07-15T00:23:06;97786.63;;;19.62;100.00
20350;BME280;10332;50.208;18.988;2022-07-15T00:25:34;97787.59;;;19.69;100.00
20350;BME280;10332;50.208;18.988;2022-07-15T00:28:05;97784.94;;;19.69;100.00
20350;BME280;10332;50.208;18.988;2022-07-15T00:30:37;97784.94;;;19.69;100.00
20350;BME280;10332;50.208;18.988;2022-07-15T00:33:06;97791.56;;;19.73;100.00
20350;BME280;10332;50.208;18.988;2022-07-15T00:35:35;97784.06;;;19.76;100.00
20350;BME280;10332;50.208;18.988;2022-07-15T00:38:07;97787.56;;;19.77;100.00
20350;BME280;10332;50.208;18.988;2022-07-15T00:40:49;97787.25;;;19.72;100.00
20350;BME280;10332;50.208;18.988;2022-07-15T00:43:18;97775.00;;;19.71;100.00
20350;BME280;10332;50.208;18.988;2022-07-15T00:45:46;97775.84;;;19.71;100.00
20350;BME280;10332;50.208;18.988;2022-07-15T00:48:14;97774.38;;;19.61;100.00
20350;BME280;10332;50.208;18.988;2022-07-15T00:50:47;97777.31;;;19.66;100.00
20350;BME280;10332;50.208;18.988;2022-07-15T00:53:20;97780.97;;;19.65;100.00
20350;BME280;10332;50.208;18.988;2022-07-15T00:55:49;97774.38;;;19.61;100.00
20350;BME280;10332;50.208;18.988;2022-07-15T00:58:24;97776.34;;;19.59;100.00
20350;BME280;10332;50.208;18.988;2022-07-15T01:00:54;97778.84;;;19.60;100.00
20350;BME280;10332;50.208;18.988;2022-07-15T01:03:27;97766.41;;;19.52;100.00
20350;BME280;10332;50.208;18.988;2022-07-15T01:05:56;97778.31;;;19.48;100.00
20350;BME280;10332;50.208;18.988;2022-07-15T01:08:25;97779.31;;;19.47;100.00
20350;BME280;10332;50.208;18.988;2022-07-15T01:10:52;97771.06;;;19.42;100.00
20350;BME280;10332;50.208;18.988;2022-07-15T01:13:21;97777.38;;;19.41;100.00
20350;BME280;10332;50.208;18.988;2022-07-15T01:15:49;97775.69;;;19.40;100.00
20350;BME280;10332;50.208;18.988;2022-07-15T01:18:17;97777.69;;;19.38;100.00
20350;BME280;10332;50.208;18.988;2022-07-15T01:20:45;97772.56;;;19.37;100.00
20350;BME280;10332;50.208;18.988;2022-07-15T01:23:17;97770.56;;;19.31;100.00
20350;BME280;10332;50.208;18.988;2022-07-15T01:25:44;97777.19;;;19.35;100.00
20350;BME280;10332;50.208;18.988;2022-07-15T01:28:13;97777.38;;;19.25;100.00
20350;BME280;10332;50.208;18.988;2022-07-15T01:30:40;97778.19;;;19.34;100.00
20350;BME280;10332;50.208;18.988;2022-07-15T01:33:07;97776.38;;;19.26;100.00
20350;BME280;10332;50.208;18.988;2022-07-15T01:35:35;97785.63;;;19.22;100.00
20350;BME280;10332;50.208;18.988;2022-07-15T01:38:02;97787.97;;;19.25;100.00
20350;BME280;10332;50.208;18.988;2022-07-15T01:40:30;97773.75;;;19.18;100.00
20350;BME280;10332;50.208;18.988;2022-07-15T01:42:57;97780.50;;;19.12;100.00
20350;BME280;10332;50.208;18.988;2022-07-15T01:45:25;97778.88;;;19.03;100.00
20350;BME280;10332;50.208;18.988;2022-07-15T01:47:52;97769.94;;;18.96;100.00
20350;BME280;10332;50.208;18.988;2022-07-15T01:50:20;97782.00;;;18.90;100.00
20350;BME280;10332;50.208;18.988;2022-07-15T01:52:47;97783.31;;;18.94;100.00
20350;BME280;10332;50.208;18.988;2022-07-15T01:55:15;97779.84;;;18.94;100.00
20350;BME280;10332;50.208;18.988;2022-07-15T01:57:42;97783.19;;;18.88;100.00
20350;BME280;10332;50.208;18.988;2022-07-15T02:00:11;97790.09;;;18.81;100.00
20350;BME280;10332;50.208;18.988;2022-07-15T02:02:39;97783.66;;;18.75;100.00
20350;BME280;10332;50.208;18.988;2022-07-15T02:05:08;97787.78;;;18.78;100.00
20350;BME280;10332;50.208;18.988;2022-07-15T02:07:35;97785.63;;;18.73;100.00
20350;BME280;10332;50.208;18.988;2022-07-15T02:10:04;97785.63;;;18.73;100.00
20350;BME280;10332;50.208;18.988;2022-07-15T02:12:32;97794.88;;;18.69;100.00
20350;BME280;10332;50.208;18.988;2022-07-15T02:14:59;97798.19;;;18.71;100.00
20350;BME280;10332;50.208;18.988;2022-07-15T02:17:27;97804.16;;;18.73;100.00
20350;BME280;10332;50.208;18.988;2022-07-15T02:19:54;97810.91;;;18.76;100.00
20350;BME280;10332;50.208;18.988;2022-07-15T02:22:22;97814.88;;;18.71;100.00
20350;BME280;10332;50.208;18.988;2022-07-15T02:24:49;97817.72;;;18.70;100.00
20350;BME280;10332;50.208;18.988;2022-07-15T02:27:16;97810.72;;;18.69;100.00
20350;BME280;10332;50.208;18.988;2022-07-15T02:29:44;97818.66;;;18.69;100.00
20350;BME280;10332;50.208;18.988;2022-07-15T02:32:11;97819.66;;;18.68;100.00
20350;BME280;10332;50.208;18.988;2022-07-15T02:34:38;97823.28;;;18.67;100.00
20350;BME280;10332;50.208;18.988;2022-07-15T02:37:06;97818.66;;;18.69;100.00
20350;BME280;10332;50.208;18.988;2022-07-15T02:39:33;97814.72;;;18.65;100.00
20350;BME280;10332;50.208;18.988;2022-07-15T02:42:01;97820.94;;;18.56;100.00
20350;BME280;10332;50.208;18.988;2022-07-15T02:44:28;97827.88;;;18.57;100.00
20350;BME280;10332;50.208;18.988;2022-07-15T02:46:55;97829.38;;;18.51;100.00
20350;BME280;10332;50.208;18.988;2022-07-15T02:49:23;97826.38;;;18.46;100.00
20350;BME280;10332;50.208;18.988;2022-07-15T02:51:50;97829.16;;;18.44;100.00
20350;BME280;10332;50.208;18.988;2022-07-15T02:54:18;97843.38;;;18.43;100.00
20350;BME280;10332;50.208;18.988;2022-07-15T02:56:51;97843.38;;;18.43;100.00
20350;BME280;10332;50.208;18.988;2022-07-15T02:59:19;97853.13;;;18.43;100.00
20350;BME280;10332;50.208;18.988;2022-07-15T03:01:46;97850.91;;;18.30;100.00
20350;BME280;10332;50.208;18.988;2022-07-15T03:04:14;97863.84;;;18.33;100.00
20350;BME280;10332;50.208;18.988;2022-07-15T03:06:41;97860.69;;;18.38;100.00
20350;BME280;10332;50.208;18.988;2022-07-15T03:09:08;97867.13;;;18.35;100.00
20350;BME280;10332;50.208;18.988;2022-07-15T03:11:36;97877.69;;;18.27;100.00
20350;BME280;10332;50.208;18.988;2022-07-15T03:14:03;97865.44;;;18.26;100.00
20350;BME280;10332;50.208;18.988;2022-07-15T03:16:31;97869.41;;;18.30;100.00
20350;BME280;10332;50.208;18.988;2022-07-15T03:18:59;97869.41;;;18.30;100.00
20350;BME280;10332;50.208;18.988;2022-07-15T03:21:26;97881.34;;;18.34;100.00
20350;BME280;10332;50.208;18.988;2022-07-15T03:23:53;97891.91;;;18.34;100.00
20350;BME280;10332;50.208;18.988;2022-07-15T03:26:21;97894.19;;;18.29;100.00
20350;BME280;10332;50.208;18.988;2022-07-15T03:28:48;97901.47;;;18.27;100.00
20350;BME280;10332;50.208;18.988;2022-07-15T03:31:16;97906.41;;;18.30;100.00
20350;BME280;10332;50.208;18.988;2022-07-15T03:33:45;97907.63;;;18.36;100.00
20350;BME280;10332;50.208;18.988;2022-07-15T03:36:20;97908.78;;;18.41;100.00
20350;BME280;10332;50.208;18.988;2022-07-15T03:38:47;97923.34;;;18.46;100.00
20350;BME280;10332;50.208;18.988;2022-07-15T03:41:16;97943.53;;;18.47;100.00
20350;BME280;10332;50.208;18.988;2022-07-15T03:43:44;97930.47;;;18.45;100.00
20350;BME280;10332;50.208;18.988;2022-07-15T03:46:12;97942.69;;;18.46;100.00
20350;BME280;10332;50.208;18.988;2022-07-15T03:48:41;97955.41;;;18.42;100.00
20350;BME280;10332;50.208;18.988;2022-07-15T03:51:09;97957.19;;;18.42;100.00
20350;BME280;10332;50.208;18.988;2022-07-15T03:53:36;97965.00;;;18.43;100.00
20350;BME280;10332;50.208;18.988;2022-07-15T03:56:04;97968.09;;;18.39;100.00
20350;BME280;10332;50.208;18.988;2022-07-15T03:58:31;97976.50;;;18.34;100.00
20350;BME280;10332;50.208;18.988;2022-07-15T04:00:59;97974.53;;;18.36;99.81
20350;BME280;10332;50.208;18.988;2022-07-15T04:03:26;97980.28;;;18.32;99.01
20350;BME280;10332;50.208;18.988;2022-07-15T04:05:54;97975.16;;;18.30;97.98
20350;BME280;10332;50.208;18.988;2022-07-15T04:08:22;97985.38;;;18.25;95.93
20350;BME280;10332;50.208;18.988;2022-07-15T04:10:49;97989.00;;;18.24;95.66
20350;BME280;10332;50.208;18.988;2022-07-15T04:13:16;97985.50;;;18.24;95.82
20350;BME280;10332;50.208;18.988;2022-07-15T04:15:46;97988.84;;;18.26;95.87
20350;BME280;10332;50.208;18.988;2022-07-15T04:18:13;97988.69;;;18.27;95.74
20350;BME280;10332;50.208;18.988;2022-07-15T04:20:40;97987.69;;;18.28;95.24
20350;BME280;10332;50.208;18.988;2022-07-15T04:23:08;97991.66;;;18.24;95.48
20350;BME280;10332;50.208;18.988;2022-07-15T04:25:35;97999.25;;;18.27;95.65
20350;BME280;10332;50.208;18.988;2022-07-15T04:28:03;97996.22;;;18.22;95.36
20350;BME280;10332;50.208;18.988;2022-07-15T04:30:30;98001.06;;;18.27;95.04
20350;BME280;10332;50.208;18.988;2022-07-15T04:32:57;98006.88;;;18.30;94.73
20350;BME280;10332;50.208;18.988;2022-07-15T04:35:25;98006.88;;;18.30;94.79
20350;BME280;10332;50.208;18.988;2022-07-15T04:37:52;98011.31;;;18.30;94.32
20350;BME280;10332;50.208;18.988;2022-07-15T04:40:20;98006.69;;;18.32;93.54
20350;BME280;10332;50.208;18.988;2022-07-15T04:42:47;98005.88;;;18.31;93.24
20350;BME280;10332;50.208;18.988;2022-07-15T04:45:14;98000.44;;;18.33;93.01
20350;BME280;10332;50.208;18.988;2022-07-15T04:47:42;98008.91;;;18.36;92.75
20350;BME280;10332;50.208;18.988;2022-07-15T04:50:09;98016.22;;;18.42;92.45
20350;BME280;10332;50.208;18.988;2022-07-15T04:52:55;98017.38;;;18.48;91.86
20350;BME280;10332;50.208;18.988;2022-07-15T04:55:22;98029.63;;;18.49;91.06
20350;BME280;10332;50.208;18.988;2022-07-15T04:57:50;98026.16;;;18.49;90.49
20350;BME280;10332;50.208;18.988;2022-07-15T05:00:17;98024.88;;;18.53;90.08
20350;BME280;10332;50.208;18.988;2022-07-15T05:02:44;98031.81;;;18.54;89.53
20350;BME280;10332;50.208;18.988;2022-07-15T05:05:12;98027.69;;;18.59;88.45
20350;BME280;10332;50.208;18.988;2022-07-15T05:07:39;98028.50;;;18.52;87.81
20350;BME280;10332;50.208;18.988;2022-07-15T05:10:08;98042.00;;;18.49;87.48
20350;BME280;10332;50.208;18.988;2022-07-15T05:12:36;98036.78;;;18.57;87.36
20350;BME280;10332;50.208;18.988;2022-07-15T05:15:04;98051.97;;;18.55;86.86
20350;BME280;10332;50.208;18.988;2022-07-15T05:17:33;98063.31;;;18.65;87.21
20350;BME280;10332;50.208;18.988;2022-07-15T05:20:02;98068.00;;;18.53;88.72
20350;BME280;10332;50.208;18.988;2022-07-15T05:22:29;98063.88;;;18.59;87.59
20350;BME280;10332;50.208;18.988;2022-07-15T05:24:57;98069.59;;;18.46;87.71
20350;BME280;10332;50.208;18.988;2022-07-15T05:27:24;98082.75;;;18.38;86.35
20350;BME280;10332;50.208;18.988;2022-07-15T05:29:51;98083.50;;;18.30;86.74
20350;BME280;10332;50.208;18.988;2022-07-15T05:32:19;98089.63;;;18.31;86.68
20350;BME280;10332;50.208;18.988;2022-07-15T05:34:46;98091.91;;;18.26;86.78
20350;BME280;10332;50.208;18.988;2022-07-15T05:37:13;98103.31;;;18.26;86.11
20350;BME280;10332;50.208;18.988;2022-07-15T05:39:41;98094.03;;;18.22;84.99
20350;BME280;10332;50.208;18.988;2022-07-15T05:42:22;98096.81;;;18.21;85.54
20350;BME280;10332;50.208;18.988;2022-07-15T05:44:50;98097.97;;;18.18;85.77
20350;BME280;10332;50.208;18.988;2022-07-15T05:47:17;98105.50;;;18.13;85.29
20350;BME280;10332;50.208;18.988;2022-07-15T05:49:45;98103.75;;;18.22;85.45
20350;BME280;10332;50.208;18.988;2022-07-15T05:52:12;98107.63;;;18.27;84.96
20350;BME280;10332;50.208;18.988;2022-07-15T05:54:40;98108.44;;;18.28;83.62
20350;BME280;10332;50.208;18.988;2022-07-15T05:57:07;98116.59;;;18.34;83.56
20350;BME280;10332;50.208;18.988;2022-07-15T05:59:34;98121.25;;;18.40;82.72
20350;BME280;10332;50.208;18.988;2022-07-15T06:02:02;98120.28;;;18.41;83.05
20350;BME280;10332;50.208;18.988;2022-07-15T06:04:31;98120.66;;;18.47;82.75
20350;BME280;10332;50.208;18.988;2022-07-15T06:06:58;98129.66;;;18.54;81.41
20350;BME280;10332;50.208;18.988;2022-07-15T06:09:26;98124.34;;;18.54;80.64
20350;BME280;10332;50.208;18.988;2022-07-15T06:11:54;98137.88;;;18.51;79.78
20350;BME280;10332;50.208;18.988;2022-07-15T06:14:21;98136.19;;;18.50;80.17
20350;BME280;10332;50.208;18.988;2022-07-15T06:16:48;98138.84;;;18.50;79.88
20350;BME280;10332;50.208;18.988;2022-07-15T06:19:16;98145.03;;;18.58;78.54
20350;BME280;10332;50.208;18.988;2022-07-15T06:21:43;98146.34;;;18.54;76.49
20350;BME280;10332;50.208;18.988;2022-07-15T06:24:10;98143.91;;;18.61;76.65
20350;BME280;10332;50.208;18.988;2022-07-15T06:26:38;98142.66;;;18.65;76.03
20350;BME280;10332;50.208;18.988;2022-07-15T06:29:06;98145.97;;;18.67;75.70
20350;BME280;10332;50.208;18.988;2022-07-15T06:31:34;98144.53;;;18.73;75.04
20350;BME280;10332;50.208;18.988;2022-07-15T06:34:01;98148.88;;;18.82;75.99
20350;BME280;10332;50.208;18.988;2022-07-15T06:36:30;98159.38;;;18.91;75.83
20350;BME280;10332;50.208;18.988;2022-07-15T06:38:57;98154.34;;;19.06;75.84
20350;BME280;10332;50.208;18.988;2022-07-15T06:41:24;98172.06;;;19.14;76.26
20350;BME280;10332;50.208;18.988;2022-07-15T06:43:58;98176.56;;;19.21;74.84
20350;BME280;10332;50.208;18.988;2022-07-15T06:46:26;98173.84;;;19.39;74.40
20350;BME280;10332;50.208;18.988;2022-07-15T06:48:53;98183.44;;;19.40;74.06
20350;BME280;10332;50.208;18.988;2022-07-15T06:51:21;98183.56;;;19.56;74.08
20350;BME280;10332;50.208;18.988;2022-07-15T06:53:48;98175.31;;;19.68;73.46
20350;BME280;10332;50.208;18.988;2022-07-15T06:56:16;98183.34;;;19.84;73.49
20350;BME280;10332;50.208;18.988;2022-07-15T06:58:43;98190.63;;;19.82;72.73
20350;BME280;10332;50.208;18.988;2022-07-15T07:01:11;98187.63;;;19.77;71.38
20350;BME280;10332;50.208;18.988;2022-07-15T07:03:38;98195.69;;;19.67;71.56
20350;BME280;10332;50.208;18.988;2022-07-15T07:06:24;98189.28;;;19.70;71.29
20350;BME280;10332;50.208;18.988;2022-07-15T07:08:53;98200.13;;;19.59;71.40
20350;BME280;10332;50.208;18.988;2022-07-15T07:11:21;98200.00;;;19.60;70.87
20350;BME280;10332;50.208;18.988;2022-07-15T07:13:49;98218.59;;;19.76;69.80
20350;BME280;10332;50.208;18.988;2022-07-15T07:16:18;98204.38;;;19.85;69.81
20350;BME280;10332;50.208;18.988;2022-07-15T07:18:46;98206.84;;;19.79;67.94
20350;BME280;10332;50.208;18.988;2022-07-15T07:21:15;98209.91;;;20.00;68.59
20350;BME280;10332;50.208;18.988;2022-07-15T07:23:44;98216.22;;;20.07;66.64
20350;BME280;10332;50.208;18.988;2022-07-15T07:26:13;98222.53;;;20.15;66.15
20350;BME280;10332;50.208;18.988;2022-07-15T07:28:41;98218.75;;;20.25;64.60
20350;BME280;10332;50.208;18.988;2022-07-15T07:31:11;98221.63;;;20.48;64.88
20350;BME280;10332;50.208;18.988;2022-07-15T07:33:40;98228.44;;;20.75;63.46
20350;BME280;10332;50.208;18.988;2022-07-15T07:36:08;98225.78;;;21.08;62.24
20350;BME280;10332;50.208;18.988;2022-07-15T07:38:36;98239.06;;;21.16;62.17
20350;BME280;10332;50.208;18.988;2022-07-15T07:41:04;98234.91;;;21.13;60.59
20350;BME280;10332;50.208;18.988;2022-07-15T07:43:32;98245.38;;;21.07;59.72
20350;BME280;10332;50.208;18.988;2022-07-15T07:46:00;98236.41;;;21.08;58.39
20350;BME280;10332;50.208;18.988;2022-07-15T07:48:29;98241.19;;;21.20;58.97
20350;BME280;10332;50.208;18.988;2022-07-15T07:50:58;98242.53;;;21.41;59.02
20350;BME280;10332;50.208;18.988;2022-07-15T07:53:25;98251.22;;;21.82;57.90
20350;BME280;10332;50.208;18.988;2022-07-15T07:55:53;98241.22;;;22.31;57.58
20350;BME280;10332;50.208;18.988;2022-07-15T07:58:20;98252.28;;;22.43;57.15
20350;BME280;10332;50.208;18.988;2022-07-15T08:00:48;98256.59;;;22.13;55.01
20350;BME280;10332;50.208;18.988;2022-07-15T08:03:15;98254.56;;;22.23;54.48
20350;BME280;10332;50.208;18.988;2022-07-15T08:05:43;98255.59;;;22.45;53.78
20350;BME280;10332;50.208;18.988;2022-07-15T08:08:19;98266.41;;;22.44;52.14
20350;BME280;10332;50.208;18.988;2022-07-15T08:10:53;98259.94;;;22.69;52.83
20350;BME280;10332;50.208;18.988;2022-07-15T08:13:23;98252.53;;;22.56;52.92
20350;BME280;10332;50.208;18.988;2022-07-15T08:15:53;98252.50;;;22.33;53.45
20350;BME280;10332;50.208;18.988;2022-07-15T08:18:34;98261.56;;;22.16;53.29
20350;BME280;10332;50.208;18.988;2022-07-15T08:21:02;98258.38;;;22.29;52.96
20350;BME280;10332;50.208;18.988;2022-07-15T08:23:31;98252.81;;;22.38;53.41
20350;BME280;10332;50.208;18.988;2022-07-15T08:25:59;98259.47;;;22.34;52.22
20350;BME280;10332;50.208;18.988;2022-07-15T08:28:28;98258.59;;;22.42;51.76
20350;BME280;10332;50.208;18.988;2022-07-15T08:31:16;98269.34;;;22.57;50.32
20350;BME280;10332;50.208;18.988;2022-07-15T08:33:44;98259.75;;;22.71;50.75
20350;BME280;10332;50.208;18.988;2022-07-15T08:36:12;98256.69;;;23.05;50.12
20350;BME280;10332;50.208;18.988;2022-07-15T08:38:39;98262.09;;;23.49;49.71
20350;BME280;10332;50.208;18.988;2022-07-15T08:41:07;98264.34;;;23.60;48.84
20350;BME280;10332;50.208;18.988;2022-07-15T08:43:35;98255.56;;;23.51;49.13
20350;BME280;10332;50.208;18.988;2022-07-15T08:46:06;98265.88;;;23.55;48.91
20350;BME280;10332;50.208;18.988;2022-07-15T08:48:37;98266.00;;;23.76;48.77
20350;BME280;10332;50.208;18.988;2022-07-15T08:51:10;98268.00;;;23.59;49.21
20350;BME280;10332;50.208;18.988;2022-07-15T08:53:38;98273.72;;;23.71;49.26
20350;BME280;10332;50.208;18.988;2022-07-15T08:56:06;98269.50;;;23.76;48.95
20350;BME280;10332;50.208;18.988;2022-07-15T08:58:35;98273.78;;;23.63;48.65
20350;BME280;10332;50.208;18.988;2022-07-15T09:01:24;98279.44;;;23.68;47.52
20350;BME280;10332;50.208;18.988;2022-07-15T09:03:51;98277.03;;;23.88;47.72
20350;BME280;10332;50.208;18.988;2022-07-15T09:06:41;98269.31;;;23.93;45.73
20350;BME280;10332;50.208;18.988;2022-07-15T09:09:33;98270.22;;;24.00;44.58
20350;BME280;10332;50.208;18.988;2022-07-15T09:12:04;98276.84;;;24.19;44.50
20350;BME280;10332;50.208;18.988;2022-07-15T09:14:44;98276.00;;;24.33;45.46
20350;BME280;10332;50.208;18.988;2022-07-15T09:20:05;98271.06;;;24.51;46.14
20350;BME280;10332;50.208;18.988;2022-07-15T09:22:50;98286.84;;;24.89;44.85
20350;BME280;10332;50.208;18.988;2022-07-15T09:25:20;98286.38;;;25.22;43.63
20350;BME280;10332;50.208;18.988;2022-07-15T09:27:48;98274.66;;;25.01;43.03
20350;BME280;10332;50.208;18.988;2022-07-15T09:30:27;98284.44;;;24.94;44.37
20350;BME280;10332;50.208;18.988;2022-07-15T09:33:16;98284.72;;;25.21;42.21
20350;BME280;10332;50.208;18.988;2022-07-15T09:36:27;98272.66;;;25.59;41.44
20350;BME280;10332;50.208;18.988;2022-07-15T09:39:03;98254.09;;;25.51;40.78
20350;BME280;10332;50.208;18.988;2022-07-15T09:41:33;98272.13;;;25.42;40.54
20350;BME280;10332;50.208;18.988;2022-07-15T09:51:59;98263.34;;;26.79;37.57
20350;BME280;10332;50.208;18.988;2022-07-15T09:57:19;98269.16;;;27.35;35.40
20350;BME280;10332;50.208;18.988;2022-07-15T09:59:50;98271.56;;;27.90;35.21
20350;BME280;10332;50.208;18.988;2022-07-15T10:02:18;98250.47;;;27.93;34.52
20350;BME280;10332;50.208;18.988;2022-07-15T10:04:45;98249.53;;;28.26;34.82
20350;BME280;10332;50.208;18.988;2022-07-15T10:07:17;98256.97;;;28.31;35.28
20350;BME280;10332;50.208;18.988;2022-07-15T10:09:56;98270.06;;;28.59;34.22
20350;BME280;10332;50.208;18.988;2022-07-15T10:15:56;98273.44;;;30.04;32.18
20350;BME280;10332;50.208;18.988;2022-07-15T10:21:18;98265.53;;;30.99;30.36
20350;BME280;10332;50.208;18.988;2022-07-15T10:29:23;98268.91;;;31.71;29.60
20350;BME280;10332;50.208;18.988;2022-07-15T10:31:59;98275.13;;;31.72;29.49
20350;BME280;10332;50.208;18.988;2022-07-15T10:34:36;98263.66;;;32.28;27.93
20350;BME280;10332;50.208;18.988;2022-07-15T10:37:10;98260.03;;;32.34;28.42
20350;BME280;10332;50.208;18.988;2022-07-15T10:39:57;98242.88;;;31.65;29.04
20350;BME280;10332;50.208;18.988;2022-07-15T10:42:57;98256.72;;;30.50;29.56
20350;BME280;10332;50.208;18.988;2022-07-15T10:45:25;98263.13;;;30.67;30.13
20350;BME280;10332;50.208;18.988;2022-07-15T10:48:25;98267.91;;;30.17;30.66
20350;BME280;10332;50.208;18.988;2022-07-15T10:50:54;98265.53;;;29.65;31.14
20350;BME280;10332;50.208;18.988;2022-07-15T10:53:25;98276.84;;;29.31;31.53
20350;BME280;10332;50.208;18.988;2022-07-15T10:55:55;98272.97;;;29.45;31.01
20350;BME280;10332;50.208;18.988;2022-07-15T10:58:22;98262.97;;;29.02;31.19
20350;BME280;10332;50.208;18.988;2022-07-15T11:00:50;98271.06;;;28.64;31.89
20350;BME280;10332;50.208;18.988;2022-07-15T11:03:20;98274.09;;;28.36;33.45
20350;BME280;10332;50.208;18.988;2022-07-15T11:13:50;98280.38;;;28.10;32.32
20350;BME280;10332;50.208;18.988;2022-07-15T11:16:20;98272.31;;;28.17;32.81
20350;BME280;10332;50.208;18.988;2022-07-15T11:18:55;98259.06;;;28.28;33.22
20350;BME280;10332;50.208;18.988;2022-07-15T11:21:26;98272.41;;;27.84;33.20
20350;BME280;10332;50.208;18.988;2022-07-15T11:23:53;98289.78;;;27.61;34.27
20350;BME280;10332;50.208;18.988;2022-07-15T11:26:21;98267.06;;;27.64;33.27
20350;BME280;10332;50.208;18.988;2022-07-15T11:28:50;98266.88;;;27.72;33.10
20350;BME280;10332;50.208;18.988;2022-07-15T11:31:18;98285.88;;;27.44;33.34
20350;BME280;10332;50.208;18.988;2022-07-15T11:33:46;98275.53;;;27.21;33.55
20350;BME280;10332;50.208;18.988;2022-07-15T11:36:19;98265.44;;;27.43;33.35
20350;BME280;10332;50.208;18.988;2022-07-15T11:38:51;98271.00;;;27.55;33.61
20350;BME280;10332;50.208;18.988;2022-07-15T11:41:19;98274.75;;;27.14;33.22
20350;BME280;10332;50.208;18.988;2022-07-15T11:44:09;98275.97;;;27.18;32.99
20350;BME280;10332;50.208;18.988;2022-07-15T11:46:57;98266.63;;;26.74;33.24
20350;BME280;10332;50.208;18.988;2022-07-15T11:49:36;98267.88;;;26.92;33.87
20350;BME280;10332;50.208;18.988;2022-07-15T11:52:09;98273.44;;;26.90;33.32
20350;BME280;10332;50.208;18.988;2022-07-15T11:54:41;98267.50;;;27.28;33.21
20350;BME280;10332;50.208;18.988;2022-07-15T11:57:10;98261.94;;;27.42;32.84
20350;BME280;10332;50.208;18.988;2022-07-15T11:59:39;98260.91;;;27.30;33.56
20350;BME280;10332;50.208;18.988;2022-07-15T12:02:11;98251.22;;;27.09;34.13
20350;BME280;10332;50.208;18.988;2022-07-15T12:04:40;98258.44;;;27.09;34.25
20350;BME280;10332;50.208;18.988;2022-07-15T12:07:09;98260.50;;;27.20;33.35
20350;BME280;10332;50.208;18.988;2022-07-15T12:10:02;98255.13;;;27.33;33.24
20350;BME280;10332;50.208;18.988;2022-07-15T12:12:55;98254.31;;;27.33;33.34
20350;BME280;10332;50.208;18.988;2022-07-15T12:15:24;98252.41;;;27.66;32.59
20350;BME280;10332;50.208;18.988;2022-07-15T12:17:52;98261.13;;;28.20;32.42
20350;BME280;10332;50.208;18.988;2022-07-15T12:20:19;98256.03;;;28.88;31.75
20350;BME280;10332;50.208;18.988;2022-07-15T12:23:07;98263.88;;;28.96;30.33
20350;BME280;10332;50.208;18.988;2022-07-15T12:25:35;98265.94;;;29.44;30.20
20350;BME280;10332;50.208;18.988;2022-07-15T12:28:03;98268.63;;;29.44;30.43
20350;BME280;10332;50.208;18.988;2022-07-15T12:30:39;98264.78;;;28.77;30.68
20350;BME280;10332;50.208;18.988;2022-07-15T12:33:19;98264.22;;;28.23;31.94
20350;BME280;10332;50.208;18.988;2022-07-15T12:35:47;98256.09;;;28.43;31.37
20350;BME280;10332;50.208;18.988;2022-07-15T12:38:29;98258.91;;;28.55;31.31
20350;BME280;10332;50.208;18.988;2022-07-15T12:41:24;98268.94;;;28.41;30.46
20350;BME280;10332;50.208;18.988;2022-07-15T12:43:58;98263.09;;;28.51;30.26
20350;BME280;10332;50.208;18.988;2022-07-15T12:46:52;98267.13;;;28.67;29.67
20350;BME280;10332;50.208;18.988;2022-07-15T12:52:38;98252.47;;;28.63;29.18
20350;BME280;10332;50.208;18.988;2022-07-15T12:55:18;98264.28;;;28.55;30.07
20350;BME280;10332;50.208;18.988;2022-07-15T12:57:47;98256.66;;;28.90;29.78
20350;BME280;10332;50.208;18.988;2022-07-15T13:00:22;98250.69;;;28.81;30.34
20350;BME280;10332;50.208;18.988;2022-07-15T13:03:03;98252.91;;;28.60;30.17
20350;BME280;10332;50.208;18.988;2022-07-15T13:05:38;98252.00;;;28.72;29.98
20350;BME280;10332;50.208;18.988;2022-07-15T13:08:25;98245.44;;;28.62;30.04
20350;BME280;10332;50.208;18.988;2022-07-15T13:10:58;98248.97;;;28.62;29.60
20350;BME280;10332;50.208;18.988;2022-07-15T13:13:30;98258.66;;;28.63;29.20
20350;BME280;10332;50.208;18.988;2022-07-15T13:15:59;98262.44;;;28.55;29.11
20350;BME280;10332;50.208;18.988;2022-07-15T13:18:26;98258.28;;;28.60;29.52
20350;BME280;10332;50.208;18.988;2022-07-15T13:20:55;98252.22;;;28.71;29.65
20350;BME280;10332;50.208;18.988;2022-07-15T13:23:24;98249.19;;;28.61;29.85
20350;BME280;10332;50.208;18.988;2022-07-15T13:25:51;98241.47;;;28.71;30.19
20350;BME280;10332;50.208;18.988;2022-07-15T13:28:22;98271.06;;;28.64;29.95
20350;BME280;10332;50.208;18.988;2022-07-15T13:30:51;98255.09;;;28.38;29.41
20350;BME280;10332;50.208;18.988;2022-07-15T13:33:19;98245.00;;;28.33;29.68
20350;BME280;10332;50.208;18.988;2022-07-15T13:35:47;98257.94;;;27.91;29.76
20350;BME280;10332;50.208;18.988;2022-07-15T13:38:14;98253.81;;;27.82;30.29
20350;BME280;10332;50.208;18.988;2022-07-15T13:40:42;98261.69;;;27.64;30.43